createdAt,value
2022-10-28T00:01:08.264Z,53.05
2022-10-28T00:06:07.399Z,53.13
2022-10-28T00:11:09.534Z,52.95
2022-10-28T00:16:09.092Z,52.85
2022-10-28T00:21:08.606Z,52.58
2022-10-28T00:26:11.572Z,52.57
2022-10-28T00:31:09.935Z,52.56
2022-10-28T00:36:15.865Z,52.58
2022-10-28T00:41:16.668Z,53.06
2022-10-28T00:46:19.882Z,53.36
2022-10-28T00:51:22.813Z,53.68
2022-10-28T00:56:22.311Z,53.82
2022-10-28T01:01:19.182Z,53.64
2022-10-28T01:06:16.791Z,54.04
2022-10-28T01:11:49.762Z,54.08
2022-10-28T01:17:10.052Z,54.41
2022-10-28T01:22:20.460Z,54.56
2022-10-28T01:27:48.308Z,54.60
2022-10-28T01:32:56.346Z,54.86
2022-10-28T01:38:13.254Z,55.06
2022-10-28T01:43:15.469Z,55.45
2022-10-28T01:48:16.753Z,55.57
2022-10-28T01:53:17.105Z,55.78
2022-10-28T01:58:19.171Z,55.98
2022-10-28T02:03:17.712Z,56.05
2022-10-28T02:08:43.414Z,56.03
2022-10-28T02:13:51.602Z,56.32
2022-10-28T02:18:59.891Z,56.34
2022-10-28T02:24:02.608Z,56.87
2022-10-28T02:29:08.017Z,57.82
2022-10-28T02:34:09.950Z,59.06
2022-10-28T02:39:08.029Z,58.83
2022-10-28T02:44:08.597Z,58.68
2022-10-28T02:49:09.192Z,58.40
2022-10-28T02:54:10.001Z,58.58
2022-10-28T02:59:11.014Z,58.63
2022-10-28T03:04:08.751Z,58.74
2022-10-28T03:09:05.800Z,58.79
2022-10-28T03:14:04.131Z,58.86
2022-10-28T03:19:01.373Z,58.64
2022-10-28T03:23:59.027Z,58.69
2022-10-28T03:28:55.995Z,58.68
2022-10-28T03:33:52.968Z,59.04
2022-10-28T03:38:49.980Z,58.92
2022-10-28T03:43:48.171Z,58.87
2022-10-28T03:48:45.066Z,58.83
2022-10-28T03:53:41.873Z,58.95
2022-10-28T03:58:41.040Z,59.10
2022-10-28T04:03:41.379Z,59.18
2022-10-28T04:08:38.535Z,58.91
2022-10-28T04:13:37.659Z,59.23
2022-10-28T04:18:35.392Z,59.11
2022-10-28T04:23:33.206Z,58.94
2022-10-28T04:28:30.337Z,59.05
2022-10-28T04:33:29.400Z,59.17
2022-10-28T04:38:26.513Z,59.08
2022-10-28T04:43:24.309Z,59.14
2022-10-28T04:48:21.510Z,59.01
2022-10-28T04:53:18.434Z,59.23
2022-10-28T04:58:18.300Z,59.70
2022-10-28T05:03:16.107Z,59.75
2022-10-28T05:08:19.145Z,59.89
2022-10-28T05:13:26.136Z,59.31
2022-10-28T05:18:26.235Z,59.42
2022-10-28T05:23:28.641Z,59.78
2022-10-28T05:28:27.707Z,59.86
2022-10-28T05:33:25.540Z,59.83
2022-10-28T05:38:50.503Z,59.77
2022-10-28T05:43:47.745Z,59.80
2022-10-28T05:48:47.676Z,60.01
2022-10-28T05:53:44.661Z,60.16
2022-10-28T05:58:44.962Z,60.36
2022-10-28T06:03:42.078Z,60.34
2022-10-28T06:08:46.894Z,60.36
2022-10-28T06:13:57.237Z,60.32
2022-10-28T06:19:13.799Z,60.17
2022-10-28T06:24:16.445Z,59.93
2022-10-28T06:29:29.302Z,59.76
2022-10-28T06:34:37.448Z,59.69
2022-10-28T06:39:37.687Z,59.16
2022-10-28T06:44:35.071Z,58.93
2022-10-28T06:49:36.246Z,58.44
2022-10-28T06:54:33.243Z,58.29
2022-10-28T06:59:34.097Z,57.89
2022-10-28T07:04:38.638Z,57.54
2022-10-28T07:09:39.257Z,57.37
2022-10-28T07:14:44.574Z,57.06
2022-10-28T07:19:41.783Z,56.77
2022-10-28T07:24:43.371Z,56.25
2022-10-28T07:29:44.197Z,55.69
2022-10-28T07:34:44.356Z,54.56
2022-10-28T07:39:41.491Z,54.68
2022-10-28T07:44:39.394Z,54.43
2022-10-28T07:49:40.915Z,53.42
2022-10-28T07:54:38.499Z,52.97
2022-10-28T07:59:38.977Z,52.63
2022-10-28T08:04:39.785Z,52.25
2022-10-28T08:09:41.551Z,51.56
2022-10-28T08:14:42.812Z,51.31
2022-10-28T08:19:41.193Z,50.58
2022-10-28T08:24:41.501Z,50.13
2022-10-28T08:29:38.440Z,50.10
2022-10-28T08:34:37.948Z,49.96
2022-10-28T08:39:38.609Z,49.74
2022-10-28T08:45:22.453Z,49.33
2022-10-28T08:50:24.921Z,49.05
2022-10-28T08:55:35.900Z,48.35
2022-10-28T09:00:34.471Z,47.77
2022-10-28T09:05:34.676Z,47.51
2022-10-28T09:10:53.346Z,47.25
2022-10-28T09:16:07.435Z,47.10
2022-10-28T09:21:09.790Z,47.30
2022-10-28T09:26:19.837Z,46.24
2022-10-28T09:31:25.743Z,45.53
2022-10-28T09:36:28.700Z,45.88
2022-10-28T09:41:31.641Z,45.34
2022-10-28T09:46:34.625Z,45.25
2022-10-28T09:51:47.634Z,44.73
2022-10-28T09:56:46.440Z,43.21
2022-10-28T10:01:49.232Z,43.79
2022-10-28T10:06:52.286Z,43.92
2022-10-28T10:11:52.535Z,43.65
2022-10-28T10:16:58.815Z,43.78
2022-10-28T10:22:06.804Z,43.29
2022-10-28T10:27:26.527Z,42.62
2022-10-28T10:32:28.690Z,42.29
2022-10-28T10:37:27.661Z,42.56
2022-10-28T10:42:27.429Z,42.21
2022-10-28T10:47:24.379Z,41.47
2022-10-28T10:52:25.437Z,40.71
2022-10-28T10:57:26.265Z,40.89
2022-10-28T12:08:31.673Z,37.78
2022-10-28T12:13:40.708Z,36.60
2022-10-28T12:24:24.322Z,34.27
2022-10-28T12:29:33.479Z,34.37
2022-10-28T12:35:01.238Z,34.25
2022-10-28T12:40:06.396Z,34.52
2022-10-28T12:45:13.588Z,33.62
2022-10-28T12:50:20.352Z,33.69
2022-10-28T12:55:31.344Z,33.69
2022-10-28T13:00:35.266Z,34.08
2022-10-28T13:05:43.309Z,34.02
2022-10-28T13:10:47.968Z,33.78
2022-10-28T13:16:16.680Z,34.76
2022-10-28T13:21:28.647Z,34.29
2022-10-28T13:26:30.627Z,34.70
2022-10-28T13:31:42.071Z,34.91
2022-10-28T13:36:42.355Z,35.13
2022-10-28T13:41:49.312Z,35.14
2022-10-28T13:47:25.917Z,35.41
2022-10-28T13:52:29.922Z,35.91
2022-10-28T13:58:04.024Z,36.39
2022-10-28T14:03:03.212Z,36.50
2022-10-28T14:08:02.360Z,36.51
2022-10-28T14:13:08.052Z,36.64
2022-10-28T14:18:42.488Z,37.14
2022-10-28T14:24:09.440Z,37.34
2022-10-28T14:29:31.533Z,37.97
2022-10-28T14:34:43.095Z,37.95
2022-10-28T14:39:58.328Z,38.80
2022-10-28T14:45:06.922Z,39.00
2022-10-28T14:50:14.994Z,39.77
2022-10-28T14:55:22.426Z,40.20
2022-10-28T15:00:25.356Z,40.59
2022-10-28T15:05:24.163Z,41.45
2022-10-28T15:10:27.270Z,41.86
2022-10-28T15:15:26.157Z,42.48
2022-10-28T15:20:27.699Z,42.92
2022-10-28T15:25:25.125Z,43.66
2022-10-28T15:30:25.974Z,44.23
2022-10-28T15:35:39.254Z,45.01
2022-10-28T15:40:39.518Z,45.71
2022-10-28T15:45:42.314Z,46.25
2022-10-28T15:50:43.078Z,46.58
2022-10-28T15:56:02.943Z,47.08
2022-10-28T16:00:59.205Z,47.77
2022-10-28T16:05:57.550Z,48.02
2022-10-28T16:11:15.537Z,48.58
2022-10-28T16:16:27.804Z,48.84
2022-10-28T16:21:30.488Z,49.07
2022-10-28T16:26:29.615Z,49.52
2022-10-28T16:31:30.468Z,50.06
2022-10-28T16:36:27.939Z,50.38
2022-10-28T16:41:30.151Z,50.67
2022-10-28T16:46:29.260Z,51.10
2022-10-28T16:51:31.202Z,51.47
2022-10-28T16:56:28.228Z,51.59
2022-10-28T17:01:25.446Z,51.82
2022-10-28T17:06:25.859Z,52.17
2022-10-28T17:11:22.989Z,52.18
2022-10-28T17:16:19.932Z,52.36
2022-10-28T17:21:16.751Z,52.77
2022-10-28T17:26:14.325Z,53.19
2022-10-28T17:31:13.003Z,53.42
2022-10-28T17:36:12.621Z,53.46
2022-10-28T17:41:09.779Z,53.82
2022-10-28T17:46:08.680Z,53.79
2022-10-28T17:51:06.105Z,54.06
2022-10-28T17:56:05.325Z,54.09
2022-10-28T18:01:07.816Z,54.55
2022-10-28T18:06:06.412Z,54.58
2022-10-28T18:11:04.524Z,54.57
2022-10-28T18:16:04.530Z,54.93
2022-10-28T18:21:02.529Z,54.77
2022-10-28T18:26:00.430Z,54.89
2022-10-28T18:31:01.376Z,55.28
2022-10-28T18:35:58.684Z,55.32
2022-10-28T18:40:56.394Z,55.57
2022-10-28T18:45:53.821Z,55.70
2022-10-28T18:50:56.510Z,55.82
2022-10-28T18:55:53.782Z,55.88
2022-10-28T19:00:52.479Z,56.02
2022-10-28T19:05:50.081Z,55.97
2022-10-28T19:10:48.028Z,56.02
2022-10-28T19:15:48.234Z,56.15
2022-10-28T19:20:47.390Z,56.22
2022-10-28T19:25:53.818Z,56.49
2022-10-28T19:31:00.932Z,56.42
2022-10-28T19:36:13.844Z,56.73
2022-10-28T19:41:12.569Z,56.78
2022-10-28T19:46:13.105Z,56.67
2022-10-28T19:51:13.651Z,56.91
2022-10-28T19:56:21.359Z,57.00
2022-10-28T20:01:19.521Z,57.03
2022-10-28T20:06:19.070Z,57.20
2022-10-28T20:11:23.100Z,57.24
2022-10-28T20:16:25.380Z,57.36
2022-10-28T20:21:27.099Z,57.54
2022-10-28T20:26:25.673Z,57.32
2022-10-28T20:31:24.921Z,57.65
2022-10-28T20:36:24.633Z,57.81
2022-10-28T20:41:22.341Z,57.87
2022-10-28T20:46:20.332Z,57.82
2022-10-28T20:51:19.360Z,57.87
2022-10-28T20:56:18.664Z,57.73
2022-10-28T21:01:18.381Z,57.82
2022-10-28T21:06:16.939Z,57.87
2022-10-28T21:11:16.086Z,58.03
2022-10-28T21:16:13.745Z,58.12
2022-10-28T21:21:11.628Z,58.00
2022-10-28T21:26:11.094Z,58.14
2022-10-28T21:31:10.145Z,58.26
2022-10-28T21:36:11.831Z,58.41
2022-10-28T21:41:11.664Z,58.43
2022-10-28T21:46:09.756Z,58.50
2022-10-28T21:51:13.421Z,58.61
2022-10-28T21:56:17.608Z,58.57
2022-10-28T22:01:17.233Z,58.73
2022-10-28T22:06:15.103Z,58.54
2022-10-28T22:11:14.526Z,58.68
2022-10-28T22:16:12.871Z,58.74
2022-10-28T22:21:11.479Z,58.79
2022-10-28T22:26:11.144Z,58.80
2022-10-28T22:31:10.123Z,58.86
2022-10-28T22:36:09.434Z,58.94
2022-10-28T22:41:11.417Z,58.84
2022-10-28T22:46:09.333Z,58.69
2022-10-28T22:51:06.670Z,59.08
2022-10-28T22:56:06.483Z,59.14
2022-10-28T23:01:09.474Z,59.16
2022-10-28T23:06:07.593Z,59.61
2022-10-28T23:11:05.110Z,59.35
2022-10-28T23:16:06.114Z,59.16
2022-10-28T23:21:08.091Z,59.31
2022-10-28T23:26:05.541Z,59.24
2022-10-28T23:31:03.553Z,59.43
2022-10-28T23:36:03.119Z,59.42
2022-10-28T23:41:01.959Z,59.30
2022-10-28T23:45:59.270Z,59.52
2022-10-28T23:50:57.052Z,59.07
2022-10-28T23:55:54.073Z,58.88
